createdAt,value
2022-09-11T00:00:21.014Z,95610.5
2022-09-11T00:01:23.490Z,95616.6
2022-09-11T00:02:26.220Z,95616.1
2022-09-11T00:03:28.858Z,95611.8
2022-09-11T00:04:31.329Z,95618.4
2022-09-11T00:05:33.858Z,95611.8
2022-09-11T00:06:36.324Z,95616.3
2022-09-11T00:07:38.841Z,95612.3
2022-09-11T00:08:41.308Z,95609.6
2022-09-11T00:09:43.798Z,95611.8
2022-09-11T00:10:46.323Z,95609
2022-09-11T00:11:49.819Z,95604.4
2022-09-11T00:12:51.751Z,95607.2
2022-09-11T00:13:54.239Z,95602.4
2022-09-11T00:14:56.716Z,95605.4
2022-09-11T00:15:59.111Z,95610.6
2022-09-11T00:17:01.113Z,95603.8
2022-09-11T00:18:03.601Z,95604
2022-09-11T00:19:06.146Z,95600.4
2022-09-11T00:20:08.620Z,95601.3
2022-09-11T00:21:10.833Z,95604.3
2022-09-11T00:22:13.040Z,95603.5
2022-09-11T00:23:15.260Z,95597.9
2022-09-11T00:24:17.745Z,95602.5
2022-09-11T00:25:20.221Z,95603.2
2022-09-11T00:26:22.728Z,95600.5
2022-09-11T00:27:25.208Z,95601.6
2022-09-11T00:28:27.680Z,95599.6
2022-09-11T00:29:30.158Z,95601.1
2022-09-11T00:30:32.629Z,95596.4
2022-09-11T00:31:35.391Z,95598.1
2022-09-11T00:32:37.697Z,95596.1
2022-09-11T00:33:40.338Z,95595.7
2022-09-11T00:34:42.685Z,95598.8
2022-09-11T00:35:44.948Z,95596.5
2022-09-11T00:36:47.119Z,95599.2
2022-09-11T00:37:49.595Z,95596.4
2022-09-11T00:38:51.790Z,95598.6
2022-09-11T00:39:54.557Z,95596.9
2022-09-11T00:40:56.830Z,95599.5
2022-09-11T00:41:59.342Z,95595.5
2022-09-11T00:43:01.807Z,95599
2022-09-11T00:44:04.304Z,95597.7
2022-09-11T00:45:06.496Z,95597
2022-09-11T00:46:09.190Z,95595.5
2022-09-11T00:47:11.784Z,95595.9
2022-09-11T00:48:14.301Z,95594
2022-09-11T00:49:16.804Z,95588.9
2022-09-11T00:50:20.989Z,95587
2022-09-11T00:51:22.888Z,95588.3
2022-09-11T00:52:24.818Z,95592.9
2022-09-11T00:53:27.293Z,95593.7
2022-09-11T00:54:29.815Z,95592.1
2022-09-11T00:55:32.278Z,95591
2022-09-11T00:56:34.475Z,95592.9
2022-09-11T00:57:36.977Z,95594
2022-09-11T00:58:39.195Z,95593.1
2022-09-11T00:59:41.391Z,95584.7
2022-09-11T01:00:43.971Z,95586.2
2022-09-11T01:01:46.703Z,95593.5
2022-09-11T01:02:49.312Z,95589.6
2022-09-11T01:03:51.777Z,95584.9
2022-09-11T01:04:54.255Z,95582.2
2022-09-11T01:05:56.757Z,95589.9
2022-09-11T01:06:58.961Z,95589
2022-09-11T01:08:01.433Z,95586
2022-09-11T01:09:03.914Z,95584.9
2022-09-11T01:10:06.147Z,95585.9
2022-09-11T01:11:08.617Z,95587.3
2022-09-11T01:12:11.090Z,95584.9
2022-09-11T01:13:13.312Z,95588.5
2022-09-11T01:14:15.782Z,95582.3
2022-09-11T01:15:18.261Z,95585.4
2022-09-11T01:16:20.711Z,95586.5
2022-09-11T01:17:22.669Z,95588.9
2022-09-11T01:18:25.166Z,95582.2
2022-09-11T01:19:27.644Z,95580
2022-09-11T01:20:30.120Z,95582.1
2022-09-11T01:22:37.329Z,95583
2022-09-11T01:23:39.980Z,95582
2022-09-11T01:24:42.249Z,95586.5
2022-09-11T01:25:44.187Z,95583.4
2022-09-11T01:26:46.651Z,95581.5
2022-09-11T01:27:49.130Z,95579.6
2022-09-11T01:28:51.358Z,95582.5
2022-09-11T01:29:53.564Z,95573.7
2022-09-11T01:30:55.481Z,95580.4
2022-09-11T01:31:57.399Z,95574.7
2022-09-11T01:32:59.573Z,95571.7
2022-09-11T01:34:01.806Z,95578.7
2022-09-11T01:35:04.269Z,95577.6
2022-09-11T01:36:06.781Z,95577.2
2022-09-11T01:37:09.025Z,95578.7
2022-09-11T01:38:10.931Z,95582.1
2022-09-11T01:39:13.424Z,95579.2
2022-09-11T01:40:16.012Z,95577.8
2022-09-11T01:41:18.255Z,95580.2
2022-09-11T01:42:20.727Z,95579.7
2022-09-11T01:43:22.639Z,95581
2022-09-11T01:44:25.137Z,95583.8
2022-09-11T01:45:27.775Z,95583.8
2022-09-11T01:46:30.089Z,95582.8
2022-09-11T01:47:31.993Z,95578.6
2022-09-11T01:48:34.464Z,95575
2022-09-11T01:49:36.943Z,95575.7
2022-09-11T01:50:39.427Z,95577.9
2022-09-11T01:51:41.905Z,95577.7
2022-09-11T01:52:44.454Z,95579.2
2022-09-11T01:54:51.922Z,95578.4
2022-09-11T01:55:54.397Z,95578.7
2022-09-11T01:56:56.625Z,95578.5
2022-09-11T01:57:58.822Z,95578.2
2022-09-11T01:59:01.023Z,95579.5
2022-09-11T02:00:03.222Z,95571.5
2022-09-11T02:01:05.107Z,95577.2
2022-09-11T02:02:06.978Z,95578.2
2022-09-11T02:03:09.490Z,95579.7
2022-09-11T02:04:11.120Z,95577.8
2022-09-11T02:05:13.340Z,95578.7
2022-09-11T02:06:15.543Z,95579.5
2022-09-11T02:07:17.719Z,95576.7
2022-09-11T02:08:20.279Z,95577.9
2022-09-11T02:09:22.770Z,95576.2
2022-09-11T02:10:24.972Z,95575.1
2022-09-11T02:11:27.450Z,95572.6
2022-09-11T02:12:29.957Z,95574.5
2022-09-11T02:13:32.412Z,95573.8
2022-09-11T02:14:34.612Z,95573.3
2022-09-11T02:15:37.111Z,95578.2
2022-09-11T02:16:39.826Z,95572.2
2022-09-11T02:17:42.026Z,95569.7
2022-09-11T02:18:44.526Z,95572
2022-09-11T02:19:47.052Z,95568.4
2022-09-11T02:20:49.545Z,95563.6
2022-09-11T02:21:51.762Z,95569.7
2022-09-11T02:22:54.242Z,95571.3
2022-09-11T02:23:56.742Z,95566.1
2022-09-11T02:24:59.419Z,95566.3
2022-09-11T02:26:01.901Z,95567.2
2022-09-11T02:27:04.371Z,95562.3
2022-09-11T02:28:06.323Z,95569.2
2022-09-11T02:29:08.789Z,95570.6
2022-09-11T02:30:10.991Z,95564.4
2022-09-11T02:31:13.487Z,95570.2
2022-09-11T02:32:16.063Z,95565.2
2022-09-11T02:33:17.986Z,95571.1
2022-09-11T02:34:20.458Z,95567.5
2022-09-11T02:35:22.944Z,95568.1
2022-09-11T02:36:25.133Z,95571.4
2022-09-11T02:37:27.315Z,95569.3
2022-09-11T02:38:29.787Z,95570.7
2022-09-11T02:39:32.297Z,95572.4
2022-09-11T02:40:34.769Z,95570.5
2022-09-11T02:41:36.417Z,95571.6
2022-09-11T02:42:38.889Z,95564.3
2022-09-11T02:43:41.243Z,95567
2022-09-11T02:44:43.875Z,95570.2
2022-09-11T02:45:46.265Z,95570
2022-09-11T02:46:48.572Z,95567.9
2022-09-11T02:47:51.048Z,95568.6
2022-09-11T02:48:53.241Z,95568.2
2022-09-11T02:49:55.164Z,95561.1
2022-09-11T02:50:57.361Z,95559.5
2022-09-11T02:51:59.547Z,95564.9
2022-09-11T02:53:01.727Z,95562.9
2022-09-11T02:54:03.634Z,95563
2022-09-11T02:55:05.880Z,95559.8
2022-09-11T02:56:08.352Z,95561.6
2022-09-11T02:57:10.538Z,95557.9
2022-09-11T02:58:12.999Z,95554.9
2022-09-11T02:59:15.227Z,95552.4
2022-09-11T03:00:17.136Z,95557.3
2022-09-11T03:01:19.617Z,95553.8
2022-09-11T03:02:22.055Z,95553.9
2022-09-11T03:03:24.580Z,95556
2022-09-11T03:04:26.770Z,95552.1
2022-09-11T03:05:29.263Z,95556.6
2022-09-11T03:06:31.732Z,95559.3
2022-09-11T03:07:34.227Z,95563.5
2022-09-11T03:08:36.424Z,95565.9
2022-09-11T03:09:38.902Z,95563.2
2022-09-11T03:10:41.418Z,95565.9
2022-09-11T03:11:43.896Z,95563.1
2022-09-11T03:12:47.371Z,95559.5
2022-09-11T03:13:49.876Z,95560.9
2022-09-11T03:14:52.072Z,95559.8
2022-09-11T03:15:54.656Z,95555.2
2022-09-11T03:16:57.189Z,95562.1
2022-09-11T03:17:59.423Z,95560.8
2022-09-11T03:19:01.890Z,95562.6
2022-09-11T03:20:04.371Z,95561.3
2022-09-11T03:21:06.857Z,95556.4
2022-09-11T03:22:09.325Z,95558.6
2022-09-11T03:23:11.531Z,95559.2
2022-09-11T03:24:13.737Z,95561.2
2022-09-11T03:25:15.932Z,95556.6
2022-09-11T03:26:18.177Z,95558.5
2022-09-11T03:27:20.648Z,95558
2022-09-11T03:28:23.115Z,95557.1
2022-09-11T03:29:25.316Z,95555
2022-09-11T03:30:27.515Z,95561.4
2022-09-11T03:31:29.906Z,95559.8
2022-09-11T03:32:32.497Z,95558.1
2022-09-11T03:33:34.875Z,95562.1
2022-09-11T03:34:37.352Z,95561.4
2022-09-11T03:35:39.256Z,95563.8
2022-09-11T03:36:41.452Z,95560.7
2022-09-11T03:37:43.660Z,95561.2
2022-09-11T03:38:46.158Z,95558.4
2022-09-11T03:39:48.579Z,95562.4
2022-09-11T03:40:50.836Z,95563.2
2022-09-11T03:41:53.344Z,95561.2
2022-09-11T03:42:55.552Z,95553.4
2022-09-11T03:43:58.024Z,95561.1
2022-09-11T03:44:59.950Z,95556.9
2022-09-11T03:46:02.177Z,95561.5
2022-09-11T03:47:04.200Z,95558.7
2022-09-11T03:48:06.675Z,95559.7
2022-09-11T03:49:09.168Z,95560.1
2022-09-11T03:50:11.649Z,95552.7
2022-09-11T03:51:13.840Z,95554.4
2022-09-11T03:52:16.043Z,95546.8
2022-09-11T03:53:18.507Z,95553.6
2022-09-11T03:54:21.004Z,95554.8
2022-09-11T03:55:23.468Z,95555.3
2022-09-11T03:56:25.941Z,95551.4
2022-09-11T03:57:28.173Z,95551.7
2022-09-11T03:58:30.643Z,95552.3
2022-09-11T03:59:33.107Z,95550.8
2022-09-11T04:00:35.032Z,95556.5
2022-09-11T04:01:37.257Z,95556
2022-09-11T04:02:39.590Z,95554.9
2022-09-11T04:03:42.287Z,95554.5
2022-09-11T04:04:45.199Z,95557.8
2022-09-11T04:05:47.666Z,95559.7
2022-09-11T04:06:50.140Z,95552.6
2022-09-11T04:07:52.312Z,95554.9
2022-09-11T04:08:54.794Z,95558.3
2022-09-11T04:09:57.274Z,95557.4
2022-09-11T04:10:59.212Z,95553.5
2022-09-11T04:12:01.677Z,95551.4
2022-09-11T04:13:04.197Z,95554
2022-09-11T04:14:06.385Z,95550.4
2022-09-11T04:15:08.576Z,95557.3
2022-09-11T04:16:10.921Z,95555.5
2022-09-11T04:17:13.212Z,95549.2
2022-09-11T04:18:15.401Z,95551.9
2022-09-11T04:19:17.602Z,95550.9
2022-09-11T04:20:20.092Z,95554.6
2022-09-11T04:21:22.578Z,95553
2022-09-11T04:22:24.788Z,95559.1
2022-09-11T04:23:27.265Z,95548.2
2022-09-11T04:24:29.728Z,95549.2
2022-09-11T04:25:31.944Z,95546.7
2022-09-11T04:26:34.130Z,95552.3
2022-09-11T04:27:36.058Z,95544.2
2022-09-11T04:28:37.733Z,95550
2022-09-11T04:29:40.211Z,95544.7
2022-09-11T04:30:42.676Z,95553.7
2022-09-11T04:31:45.121Z,95552.5
2022-09-11T04:32:47.443Z,95554.7
2022-09-11T04:33:49.907Z,95555.8
2022-09-11T04:34:52.382Z,95560.1
2022-09-11T04:35:54.865Z,95558.9
2022-09-11T04:36:57.064Z,95555.2
2022-09-11T04:37:59.253Z,95554.2
2022-09-11T04:39:01.182Z,95557.3
2022-09-11T04:40:03.695Z,95556.5
2022-09-11T04:41:06.311Z,95556.1
2022-09-11T04:42:08.777Z,95555
2022-09-11T04:43:11.255Z,95558.8
2022-09-11T04:44:13.488Z,95558.4
2022-09-11T04:45:15.699Z,95557
2022-09-11T04:46:18.161Z,95556.2
2022-09-11T04:47:20.351Z,95555.5
2022-09-11T04:48:22.848Z,95556.5
2022-09-11T04:49:25.308Z,95562.5
2022-09-11T04:50:27.770Z,95565.2
2022-09-11T04:51:30.781Z,95563.1
2022-09-11T04:52:33.258Z,95564.2
2022-09-11T04:53:35.724Z,95569.6
2022-09-11T04:54:37.913Z,95563.5
2022-09-11T04:55:40.389Z,95567.8
2022-09-11T04:56:42.880Z,95566.3
2022-09-11T04:57:45.080Z,95571.4
2022-09-11T04:58:47.553Z,95567.6
2022-09-11T04:59:49.784Z,95567.8
2022-09-11T05:00:52.544Z,95570.5
2022-09-11T05:01:55.292Z,95567.7
2022-09-11T05:02:57.523Z,95568.3
2022-09-11T05:03:59.451Z,95566
2022-09-11T05:05:01.912Z,95564.5
2022-09-11T05:06:04.385Z,95560.4
2022-09-11T05:07:06.310Z,95562.8
2022-09-11T05:08:08.507Z,95561.6
2022-09-11T05:09:10.980Z,95564.7
2022-09-11T05:10:13.474Z,95560.4
2022-09-11T05:11:15.664Z,95561.6
2022-09-11T05:12:18.182Z,95554.3
2022-09-11T05:13:20.695Z,95566.1
2022-09-11T05:14:23.183Z,95566.5
2022-09-11T05:15:25.418Z,95565.6
2022-09-11T05:16:28.110Z,95570.1
2022-09-11T05:17:30.680Z,95571.2
2022-09-11T05:18:32.883Z,95569.3
2022-09-11T05:19:35.377Z,95568.8
2022-09-11T05:20:37.859Z,95572.5
2022-09-11T05:21:40.321Z,95572.1
2022-09-11T05:22:42.840Z,95572.4
2022-09-11T05:23:45.589Z,95563.3
2022-09-11T05:24:48.068Z,95578.1
2022-09-11T05:25:50.190Z,95577.6
2022-09-11T05:26:52.726Z,95574.4
2022-09-11T05:27:54.966Z,95572.4
2022-09-11T05:28:57.430Z,95573.9
2022-09-11T05:29:59.631Z,95575.4
2022-09-11T05:31:01.871Z,95576.2
2022-09-11T05:32:04.350Z,95578.3
2022-09-11T05:33:06.548Z,95578.6
2022-09-11T05:34:08.456Z,95577.1
2022-09-11T05:35:10.952Z,95576.3
2022-09-11T05:36:13.424Z,95575.3
2022-09-11T05:37:15.340Z,95580.9
2022-09-11T05:38:17.577Z,95576.9
2022-09-11T05:39:19.509Z,95578.4
2022-09-11T05:40:21.709Z,95580.4
2022-09-11T05:41:23.633Z,95579.5
2022-09-11T05:42:25.824Z,95581.8
2022-09-11T05:43:28.321Z,95585.7
2022-09-11T05:44:30.229Z,95586.9
2022-09-11T05:45:32.423Z,95584.6
2022-09-11T05:46:35.079Z,95584.1
2022-09-11T05:47:37.283Z,95583.3
2022-09-11T05:48:39.227Z,95584
2022-09-11T05:49:41.715Z,95580.7
2022-09-11T05:50:43.930Z,95576.8
2022-09-11T05:51:46.129Z,95577.3
2022-09-11T05:52:48.652Z,95584.2
2022-09-11T05:53:51.152Z,95589.2
2022-09-11T05:54:53.628Z,95587.6
2022-09-11T05:55:55.826Z,95592.3
2022-09-11T05:56:58.303Z,95589.7
2022-09-11T05:58:00.777Z,95590
2022-09-11T05:59:03.285Z,95593.8
2022-09-11T06:00:05.502Z,95592.7
2022-09-11T06:01:07.919Z,95591.6
2022-09-11T06:02:10.426Z,95598.3
2022-09-11T06:04:17.970Z,95603.4
2022-09-11T06:05:20.477Z,95606.7
2022-09-11T06:06:22.709Z,95602
2022-09-11T06:07:25.174Z,95607.9
2022-09-11T06:08:26.827Z,95603.7
2022-09-11T06:09:29.042Z,95609.6
2022-09-11T06:10:31.512Z,95607.5
2022-09-11T06:11:33.722Z,95607.3
2022-09-11T06:12:36.197Z,95612.4
2022-09-11T06:13:38.435Z,95614
2022-09-11T06:14:41.149Z,95617.5
2022-09-11T06:16:48.242Z,95619.3
2022-09-11T06:17:50.611Z,95619.2
2022-09-11T06:18:52.800Z,95621
2022-09-11T06:19:54.980Z,95619.9
2022-09-11T06:20:57.455Z,95623
2022-09-11T06:21:59.410Z,95622.4
2022-09-11T06:23:07.306Z,95622.4
2022-09-11T06:24:09.965Z,95621.9
2022-09-11T06:25:12.456Z,95625.9
2022-09-11T06:26:14.921Z,95621.5
2022-09-11T06:27:17.395Z,95623.2
2022-09-11T06:28:19.298Z,95625.2
2022-09-11T06:29:21.777Z,95625.3
2022-09-11T06:30:24.480Z,95626.6
2022-09-11T06:31:27.065Z,95636.8
2022-09-11T06:32:29.240Z,95629.3
2022-09-11T06:33:31.744Z,95632.5
2022-09-11T06:34:33.674Z,95621.2
2022-09-11T06:35:36.150Z,95625.7
2022-09-11T06:36:38.353Z,95634.5
2022-09-11T06:37:40.592Z,95633.2
2022-09-11T06:38:43.069Z,95633.7
2022-09-11T06:39:45.764Z,95635.3
2022-09-11T06:40:47.793Z,95634.8
2022-09-11T06:41:50.272Z,95634.2
2022-09-11T06:42:52.471Z,95635
2022-09-11T06:43:54.957Z,95631
2022-09-11T06:44:56.587Z,95629
2022-09-11T06:45:59.138Z,95630.9
2022-09-11T06:47:01.690Z,95632.7
2022-09-11T06:48:04.057Z,95637.1
2022-09-11T06:49:06.669Z,95632.7
2022-09-11T06:50:08.940Z,95627.8
2022-09-11T06:51:11.196Z,95632.1
2022-09-11T06:52:13.694Z,95633.5
2022-09-11T06:53:16.182Z,95633.9
2022-09-11T06:54:18.679Z,95636.8
2022-09-11T06:55:21.155Z,95634.1
2022-09-11T06:56:23.727Z,95639.7
2022-09-11T06:57:26.212Z,95635.8
2022-09-11T06:58:28.692Z,95637.1
2022-09-11T06:59:31.166Z,95641.5
2022-09-11T07:00:33.353Z,95638
2022-09-11T07:01:36.287Z,95640.5
2022-09-11T07:02:38.895Z,95640.7
2022-09-11T07:03:41.102Z,95640.2
2022-09-11T07:04:43.674Z,95640.3
2022-09-11T07:05:46.148Z,95644.3
2022-09-11T07:06:48.627Z,95639.8
2022-09-11T07:07:50.531Z,95640.4
2022-09-11T07:08:52.765Z,95640.1
2022-09-11T07:09:55.252Z,95641.7
2022-09-11T07:10:57.452Z,95641.9
2022-09-11T07:11:59.938Z,95643.4
2022-09-11T07:13:02.411Z,95642.8
2022-09-11T07:14:04.881Z,95644.2
2022-09-11T07:15:07.062Z,95649.1
2022-09-11T07:16:09.830Z,95644.5
2022-09-11T07:17:12.220Z,95650.4
2022-09-11T07:18:14.759Z,95650.9
2022-09-11T07:19:17.233Z,95647.4
2022-09-11T07:20:19.755Z,95648.5
2022-09-11T07:21:22.237Z,95644.9
2022-09-11T07:22:24.435Z,95652.9
2022-09-11T07:23:26.908Z,95650.3
2022-09-11T07:24:29.410Z,95654.3
2022-09-11T07:25:31.876Z,95654.6
2022-09-11T07:26:34.361Z,95656.1
2022-09-11T07:27:36.558Z,95658.6
2022-09-11T07:28:38.767Z,95655.7
2022-09-11T07:29:41.248Z,95661.1
2022-09-11T07:30:44.001Z,95662.4
2022-09-11T07:31:46.299Z,95654
2022-09-11T07:32:48.827Z,95671.8
2022-09-11T07:33:50.758Z,95665
2022-09-11T07:34:52.946Z,95663.7
2022-09-11T07:35:55.490Z,95666.4
2022-09-11T07:36:58.022Z,95660.2
2022-09-11T07:38:00.578Z,95666
2022-09-11T07:39:02.774Z,95671.4
2022-09-11T07:40:05.635Z,95670.9
2022-09-11T07:41:08.256Z,95667.8
2022-09-11T07:42:10.740Z,95668.1
2022-09-11T07:43:13.297Z,95666.1
2022-09-11T07:44:15.772Z,95667.9
2022-09-11T07:46:22.703Z,95674.5
2022-09-11T07:47:25.182Z,95673.8
2022-09-11T07:48:27.668Z,95673.2
2022-09-11T07:49:30.149Z,95679.5
2022-09-11T07:50:32.351Z,95675.5
2022-09-11T07:51:34.874Z,95675.3
2022-09-11T07:52:37.350Z,95679.7
2022-09-11T07:53:39.860Z,95675.2
2022-09-11T07:54:42.109Z,95682.8
2022-09-11T07:55:44.043Z,95680.5
2022-09-11T07:56:46.499Z,95683.1
2022-09-11T07:57:48.705Z,95685.3
2022-09-11T07:58:50.672Z,95683.7
2022-09-11T07:59:52.872Z,95688.1
2022-09-11T08:00:55.256Z,95685.8
2022-09-11T08:01:58.185Z,95688.9
2022-09-11T08:03:00.734Z,95689.4
2022-09-11T08:04:03.233Z,95690.4
2022-09-11T08:05:05.158Z,95689.1
2022-09-11T08:06:07.393Z,95687.7
2022-09-11T08:07:09.919Z,95688
2022-09-11T08:08:12.131Z,95687
2022-09-11T08:09:14.600Z,95685.4
2022-09-11T08:11:21.852Z,95688.9
2022-09-11T08:12:24.322Z,95695.6
2022-09-11T08:13:26.806Z,95692.3
2022-09-11T08:14:29.032Z,95695.8
2022-09-11T08:15:31.504Z,95697.5
2022-09-11T08:16:34.160Z,95697.7
2022-09-11T08:17:36.679Z,95700.7
2022-09-11T08:18:39.204Z,95700.9
2022-09-11T08:19:41.694Z,95702.1
2022-09-11T08:20:43.894Z,95700.8
2022-09-11T08:21:46.091Z,95712.4
2022-09-11T08:22:48.635Z,95705.4
2022-09-11T08:23:50.554Z,95707.8
2022-09-11T08:24:52.774Z,95713.6
2022-09-11T08:25:55.243Z,95711
2022-09-11T08:26:57.465Z,95714.3
2022-09-11T08:27:59.925Z,95715.2
2022-09-11T08:29:02.419Z,95710.1
2022-09-11T08:30:04.674Z,95721.1
2022-09-11T08:31:07.435Z,95721.5
2022-09-11T08:32:10.238Z,95719.5
2022-09-11T08:33:12.717Z,95721.1
2022-09-11T08:34:14.648Z,95725.3
2022-09-11T08:35:16.579Z,95721.5
2022-09-11T08:36:18.793Z,95726.5
2022-09-11T08:37:21.005Z,95725.5
2022-09-11T08:38:23.506Z,95729.5
2022-09-11T08:39:25.458Z,95733
2022-09-11T08:40:27.971Z,95732.8
2022-09-11T08:41:29.875Z,95735.2
2022-09-11T08:42:32.366Z,95731.9
2022-09-11T08:43:34.975Z,95735.5
2022-09-11T08:45:42.351Z,95729.5
2022-09-11T08:46:44.654Z,95727.8
2022-09-11T08:47:47.129Z,95729.7
2022-09-11T08:48:49.616Z,95733.2
2022-09-11T08:49:52.108Z,95738.3
2022-09-11T08:50:54.334Z,95729.5
2022-09-11T08:51:56.832Z,95731.5
2022-09-11T08:52:58.766Z,95735.2
2022-09-11T08:54:01.003Z,95735.3
2022-09-11T08:55:03.484Z,95736.8
2022-09-11T08:56:05.400Z,95740.8
2022-09-11T08:57:07.311Z,95742.2
2022-09-11T08:58:09.528Z,95744.4
2022-09-11T08:59:11.705Z,95745
2022-09-11T09:00:14.171Z,95743.9
2022-09-11T09:01:18.577Z,95743.9
2022-09-11T09:02:23.668Z,95745.8
2022-09-11T09:03:26.308Z,95747
2022-09-11T09:04:28.229Z,95748.7
2022-09-11T09:05:30.705Z,95747.2
2022-09-11T09:06:33.191Z,95746.9
2022-09-11T09:07:35.666Z,95748.6
2022-09-11T09:08:37.864Z,95751.3
2022-09-11T09:09:40.381Z,95744.1
2022-09-11T09:10:42.574Z,95748.4
2022-09-11T09:11:44.770Z,95744.7
2022-09-11T09:12:47.241Z,95748.3
2022-09-11T09:13:49.755Z,95746.7
2022-09-11T09:14:52.332Z,95748.1
2022-09-11T09:15:54.744Z,95749.1
2022-09-11T09:16:57.285Z,95747.4
2022-09-11T09:17:59.491Z,95752.5
2022-09-11T09:19:01.698Z,95748.5
2022-09-11T09:20:04.179Z,95748.9
2022-09-11T09:21:05.827Z,95747.9
2022-09-11T09:22:08.336Z,95751.9
2022-09-11T09:23:10.803Z,95746.3
2022-09-11T09:24:13.282Z,95748.6
2022-09-11T09:25:15.516Z,95751.4
2022-09-11T09:26:18.000Z,95747
2022-09-11T09:27:20.479Z,95751.9
2022-09-11T09:28:22.971Z,95759
2022-09-11T09:29:25.195Z,95753.4
2022-09-11T09:30:27.678Z,95751.7
2022-09-11T09:31:29.807Z,95751.9
2022-09-11T09:32:31.867Z,95750.4
2022-09-11T09:33:34.302Z,95747.1
2022-09-11T09:34:36.228Z,95752.4
2022-09-11T09:35:38.399Z,95750.4
2022-09-11T09:36:40.606Z,95750.6
2022-09-11T09:37:43.089Z,95747.6
2022-09-11T09:38:45.574Z,95748.7
2022-09-11T09:39:47.999Z,95750.5
2022-09-11T09:40:50.556Z,95744.2
2022-09-11T09:41:53.025Z,95751.8
2022-09-11T09:42:55.223Z,95749.5
2022-09-11T09:43:57.709Z,95750.8
2022-09-11T09:45:00.223Z,95755.6
2022-09-11T09:46:02.955Z,95753.5
2022-09-11T09:47:05.225Z,95754.5
2022-09-11T09:48:07.741Z,95759.1
2022-09-11T09:49:10.215Z,95753.9
2022-09-11T09:50:12.111Z,95758.9
2022-09-11T09:51:14.042Z,95757.8
2022-09-11T09:52:16.538Z,95756.6
2022-09-11T09:53:18.503Z,95755.4
2022-09-11T09:54:20.718Z,95754
2022-09-11T09:55:22.947Z,95759.7
2022-09-11T09:56:25.466Z,95753.2
2022-09-11T09:57:27.664Z,95759.5
2022-09-11T09:58:30.155Z,95752.7
2022-09-11T09:59:32.353Z,95761.6
2022-09-11T10:00:34.287Z,95759.3
2022-09-11T10:01:36.943Z,95764.4
2022-09-11T10:02:39.672Z,95761.1
2022-09-11T10:03:42.001Z,95759.1
2022-09-11T10:04:44.508Z,95755.3
2022-09-11T10:05:46.684Z,95757.5
2022-09-11T10:06:49.164Z,95757
2022-09-11T10:07:51.335Z,95756
2022-09-11T10:08:53.569Z,95756.5
2022-09-11T10:09:55.510Z,95754.9
2022-09-11T10:10:57.722Z,95763.2
2022-09-11T10:12:00.244Z,95754.9
2022-09-11T10:15:12.421Z,95752.7
2022-09-11T10:16:14.769Z,95753.5
2022-09-11T10:17:17.363Z,95752.3
2022-09-11T10:18:19.299Z,95758
2022-09-11T10:19:21.810Z,95760.9
2022-09-11T10:20:24.011Z,95752.1
2022-09-11T10:21:26.486Z,95755.5
2022-09-11T10:22:28.700Z,95756.6
2022-09-11T10:23:30.354Z,95760.6
2022-09-11T10:24:32.856Z,95763.4
2022-09-11T10:25:35.054Z,95756.3
2022-09-11T10:26:36.978Z,95767.3
2022-09-11T10:27:39.490Z,95765.6
2022-09-11T10:28:42.245Z,95770
2022-09-11T10:29:44.686Z,95773.3
2022-09-11T10:30:47.114Z,95770.6
2022-09-11T10:31:49.674Z,95773.3
2022-09-11T10:32:52.143Z,95771.2
2022-09-11T10:33:54.334Z,95771.7
2022-09-11T10:34:56.836Z,95772.5
2022-09-11T10:35:58.744Z,95771.6
2022-09-11T10:37:01.248Z,95770.3
2022-09-11T10:38:03.716Z,95776.1
2022-09-11T10:39:05.617Z,95769.8
2022-09-11T10:40:07.779Z,95768.4
2022-09-11T10:41:09.760Z,95769.7
2022-09-11T10:42:12.250Z,95766.1
2022-09-11T10:43:14.491Z,95767.5
2022-09-11T10:44:16.693Z,95769.8
2022-09-11T10:45:19.174Z,95770.3
2022-09-11T10:46:21.344Z,95768.3
2022-09-11T10:47:23.869Z,95762.7
2022-09-11T10:48:26.342Z,95768.4
2022-09-11T10:49:28.528Z,95774.3
2022-09-11T10:50:31.037Z,95773.3
2022-09-11T10:51:33.253Z,95774.9
2022-09-11T10:52:35.490Z,95774.2
2022-09-11T10:53:37.697Z,95770.6
2022-09-11T10:54:40.170Z,95774.5
2022-09-11T10:55:42.682Z,95772.8
2022-09-11T10:56:44.891Z,95779.6
2022-09-11T10:57:47.370Z,95775.5
2022-09-11T10:59:55.123Z,95773.4
2022-09-11T11:00:57.590Z,95773.4
2022-09-11T11:02:00.326Z,95769.8
2022-09-11T11:03:02.694Z,95770.8
2022-09-11T11:04:10.430Z,95772.6
2022-09-11T11:05:13.142Z,95775.9
2022-09-11T11:06:15.636Z,95776.8
2022-09-11T11:07:18.112Z,95779.4
2022-09-11T11:08:20.602Z,95770.8
2022-09-11T11:09:23.757Z,95776.8
2022-09-11T11:10:31.828Z,95776.5
2022-09-11T11:11:33.791Z,95778.3
2022-09-11T11:12:36.004Z,95778
2022-09-11T11:13:37.665Z,95772
2022-09-11T11:14:40.180Z,95774.5
2022-09-11T11:15:42.563Z,95780.4
2022-09-11T11:16:44.847Z,95776.9
2022-09-11T11:17:47.330Z,95778.5
2022-09-11T11:18:49.549Z,95780.8
2022-09-11T11:19:51.749Z,95781.9
2022-09-11T11:20:54.227Z,95783.8
2022-09-11T11:21:56.744Z,95782.2
2022-09-11T11:22:58.947Z,95781.4
2022-09-11T11:24:01.300Z,95784.2
2022-09-11T11:25:03.516Z,95784.9
2022-09-11T11:26:05.722Z,95789.6
2022-09-11T11:27:07.969Z,95790.5
2022-09-11T11:28:10.450Z,95792.5
2022-09-11T11:29:12.657Z,95789.5
2022-09-11T11:30:15.171Z,95787.6
2022-09-11T11:31:17.874Z,95784.5
2022-09-11T11:32:20.434Z,95783.3
2022-09-11T11:33:22.363Z,95780.9
2022-09-11T11:34:24.305Z,95783.3
2022-09-11T11:35:26.783Z,95778
2022-09-11T11:36:29.263Z,95783.1
2022-09-11T11:37:31.757Z,95785
2022-09-11T11:38:34.515Z,95782.2
2022-09-11T11:39:36.813Z,95783.2
2022-09-11T11:40:39.110Z,95782.5
2022-09-11T11:41:41.585Z,95786.8
2022-09-11T11:42:43.805Z,95785.4
2022-09-11T11:43:46.281Z,95787.3
2022-09-11T11:44:48.461Z,95794
2022-09-11T11:45:51.231Z,95795.1
2022-09-11T11:46:53.745Z,95798.1
2022-09-11T11:47:55.932Z,95797.4
2022-09-11T11:48:58.426Z,95801.9
2022-09-11T11:50:00.674Z,95804.6
2022-09-11T11:51:02.847Z,95809.4
2022-09-11T11:52:04.782Z,95810.5
2022-09-11T11:53:06.715Z,95812.5
2022-09-11T11:54:08.908Z,95809.8
2022-09-11T11:55:11.118Z,95811.6
2022-09-11T11:56:13.318Z,95814.4
2022-09-11T11:57:15.524Z,95816.8
2022-09-11T11:58:17.741Z,95821.6
2022-09-11T11:59:20.062Z,95822.5
2022-09-11T12:00:22.273Z,95819
2022-09-11T12:01:24.783Z,95817.2
2022-09-11T12:02:26.980Z,95818
2022-09-11T12:03:29.667Z,95817.5
2022-09-11T12:04:32.221Z,95815.9
2022-09-11T12:05:34.175Z,95819.8
2022-09-11T12:06:36.649Z,95823.8
2022-09-11T12:07:38.849Z,95822.4
2022-09-11T12:08:41.064Z,95820
2022-09-11T12:09:43.430Z,95820
2022-09-11T12:10:45.916Z,95819.7
2022-09-11T12:11:48.388Z,95815.2
2022-09-11T12:12:50.594Z,95812.1
2022-09-11T12:13:52.544Z,95809.8
2022-09-11T12:14:54.741Z,95814.3
2022-09-11T12:15:57.500Z,95812.5
2022-09-11T12:17:00.159Z,95814.7
2022-09-11T12:18:02.350Z,95815.2
2022-09-11T12:19:04.842Z,95815.1
2022-09-11T12:20:07.316Z,95814.2
2022-09-11T12:21:09.819Z,95812.5
2022-09-11T12:22:12.039Z,95812.2
2022-09-11T12:23:13.947Z,95811.2
2022-09-11T12:24:16.438Z,95813.1
2022-09-11T12:25:18.377Z,95811.6
2022-09-11T12:26:20.843Z,95810.1
2022-09-11T12:27:22.488Z,95812
2022-09-11T12:28:24.965Z,95813.9
2022-09-11T12:29:27.195Z,95812.9
2022-09-11T12:30:29.132Z,95811
2022-09-11T12:31:31.495Z,95810.3
2022-09-11T12:32:34.067Z,95813
2022-09-11T12:33:36.542Z,95811
2022-09-11T12:34:38.736Z,95812.8
2022-09-11T12:35:41.216Z,95810.5
2022-09-11T12:36:43.457Z,95813.5
2022-09-11T12:37:45.386Z,95812.2
2022-09-11T12:38:47.587Z,95810.2
2022-09-11T12:39:50.267Z,95812.8
2022-09-11T12:40:52.821Z,95813
2022-09-11T12:41:55.305Z,95810.8
2022-09-11T12:42:57.773Z,95811.3
2022-09-11T12:44:00.254Z,95808.2
2022-09-11T12:45:02.215Z,95812
2022-09-11T12:46:04.638Z,95810.2
2022-09-11T12:47:06.684Z,95807
2022-09-11T12:48:09.206Z,95803.5
2022-09-11T12:50:16.371Z,95806.1
2022-09-11T12:51:18.850Z,95804.4